< Cyclone 198610 1986 Season Cyclone 198612 >
Cyclone 198611 (VICTOR)
General InformationTrack Information on Google MapsDetailed Wind InformationList of All Images || ResourceGoogle EarthGE AnimationAtom FeedGeoJSON
Detalied Best Track (Time Zone = UTC)
Year Month Day Hour Lat. Long. Pressure (hPa) Wind (kt) Class Image Chart
1986 3 2 09 -13.1 124.2 999 33 2 Image --
1986 3 2 12 -13.2 124.4 998 33 2 Image --
1986 3 2 16 -13.3 124.2 998 33 2 Image --
1986 3 2 18 -13.4 123.9 996 37 3 Image --
1986 3 2 21 -13.5 123.6 994 41 3 Image --
1986 3 3 00 -13.6 123.4 994 41 3 Image --
1986 3 3 03 -13.8 123.2 992 43 3 Image --
1986 3 3 06 -14.0 122.8 990 47 3 Image --
1986 3 3 09 -14.2 122.5 990 47 3 Image --
1986 3 3 12 -14.3 122.2 986 53 4 Image --
1986 3 3 16 -14.4 121.6 986 53 4 Image --
1986 3 3 18 -14.5 121.3 984 54 4 Image --
1986 3 3 21 -14.6 120.7 980 60 4 Image --
1986 3 4 00 -14.7 120.3 976 66 5 Image --
1986 3 4 06 -15.3 119.4 965 80 5 Image --
1986 3 4 12 -16.1 118.3 955 89 5 Image --
1986 3 4 18 -16.4 117.5 950 95 5 Image --
1986 3 5 00 -17.0 116.8 940 105 5 Image --
1986 3 5 06 -17.4 116.3 930 113 5 Image --
1986 3 5 12 -18.1 115.5 935 109 5 Image --
1986 3 5 18 -18.3 114.9 945 99 5 Image --
1986 3 5 21 -18.4 114.6 945 99 5 Image --
1986 3 6 00 -18.5 114.5 945 99 5 Image --
1986 3 6 03 -18.7 114.4 945 99 5 Image --
1986 3 6 06 -18.9 114.3 945 99 5 Image --
1986 3 6 09 -19.1 114.1 950 95 5 Image --
1986 3 6 12 -19.3 114.0 950 95 5 Image --
1986 3 6 16 -19.5 113.7 950 95 5 Image --
1986 3 6 18 -19.7 113.5 955 89 5 Image --
1986 3 6 21 -20.1 113.0 955 89 5 Image --
1986 3 7 00 -20.3 112.6 955 89 5 Image --
1986 3 7 03 -20.5 112.4 960 84 5 Image --
1986 3 7 06 -20.9 112.1 960 84 5 Image --
1986 3 7 09 -21.4 111.7 965 80 5 Image --
1986 3 7 12 -21.9 111.4 965 80 5 Image --
1986 3 7 16 -22.5 111.2 970 74 5 Image --
1986 3 7 18 -22.8 111.0 974 68 5 Image --
1986 3 7 21 -23.2 110.8 978 64 5 Image --
1986 3 8 00 -23.5 110.6 982 58 4 Image --
1986 3 8 06 -24.6 110.0 986 53 4 Image --
1986 3 8 12 -25.5 109.4 990 47 3 Image --
1986 3 8 18 -26.4 109.3 994 41 3 Image --
1986 3 9 00 -27.5 109.7 998 33 2 Image --
1986 3 9 06 -28.6 109.8 1002 25 2 Image --
< Cyclone 198610 1986 Season Cyclone 198612 >

Help